Time;durP1;ratioP1;P1;durP2;ratioP2;P2;SDS_P1;SDS_P2;PMS_P1;PMS_P2;Temp;Humidity;BMP_temperature;BMP_pressure;BME280_temperature;BME280_humidity;BME280_pressure;Samples;Min_cycle;Max_cycle;Signal;HPM_P1;HPM_P2
2021/06/04 00:01:20;;;;;;;12.43;7.93;;;;;;;19.73;86.39;100623.34;5038064;28;20057;-78
2021/06/04 00:03:48;;;;;;;8.48;7.25;;;;;;;19.77;86.23;100623.94;5037935;28;20057;-78
2021/06/04 00:06:15;;;;;;;8.60;7.32;;;;;;;19.62;86.00;100612.66;5037829;28;20050;-78
2021/06/04 00:08:42;;;;;;;11.23;8.77;;;;;;;19.63;86.26;100627.91;5037982;28;20057;-78
2021/06/04 00:11:26;;;;;;;9.27;8.30;;;;;;;19.57;86.34;100629.34;5037332;28;20053;-77
2021/06/04 00:13:56;;;;;;;11.02;8.05;;;;;;;19.56;85.81;100610.50;5037672;28;20111;-78
2021/06/04 00:16:29;;;;;;;13.20;8.90;;;;;;;19.50;86.79;100623.59;5036561;28;20053;-79
2021/06/04 00:19:03;;;;;;;13.23;8.93;;;;;;;19.50;86.24;100625.47;5042490;28;20041;-79
2021/06/04 00:21:35;;;;;;;9.27;8.27;;;;;;;19.40;86.77;100630.88;5056501;28;20049;-80
2021/06/04 00:24:03;;;;;;;10.77;8.40;;;;;;;19.39;86.98;100629.19;5057420;28;20102;-78
2021/06/04 00:26:31;;;;;;;10.15;8.30;;;;;;;19.26;87.80;100626.72;5057558;28;20052;-78
2021/06/04 00:28:58;;;;;;;9.23;8.30;;;;;;;19.35;87.73;100642.09;5057638;28;20049;-78
2021/06/04 00:31:26;;;;;;;10.88;8.98;;;;;;;19.29;87.36;100642.69;5057326;28;20434;-77
2021/06/04 00:33:53;;;;;;;13.15;9.25;;;;;;;19.27;88.03;100637.41;5057390;28;20057;-77
2021/06/04 00:36:23;;;;;;;10.35;9.07;;;;;;;19.23;87.90;100630.53;5057455;28;20044;-78
2021/06/04 00:38:51;;;;;;;12.32;9.45;;;;;;;19.20;87.30;100616.44;5057267;28;20053;-77
2021/06/04 00:41:25;;;;;;;10.23;9.10;;;;;;;19.10;88.23;100628.09;5057455;28;20103;-78
2021/06/04 00:43:53;;;;;;;11.93;9.02;;;;;;;19.05;88.30;100633.06;5057285;28;20366;-78
2021/06/04 00:46:19;;;;;;;13.38;8.70;;;;;;;18.93;88.66;100610.66;5055966;28;20423;-78
2021/06/04 00:48:47;;;;;;;12.45;10.13;;;;;;;19.06;88.45;100629.38;5057016;28;20080;-78
2021/06/04 00:51:22;;;;;;;12.02;10.18;;;;;;;18.97;88.76;100622.06;5055842;28;20458;-78
2021/06/04 00:53:50;;;;;;;13.60;11.05;;;;;;;18.86;89.21;100626.56;5057075;28;20118;-78
2021/06/04 00:56:19;;;;;;;10.88;9.75;;;;;;;18.86;88.52;100625.72;5056073;28;20052;-78
2021/06/04 00:58:47;;;;;;;14.45;10.32;;;;;;;18.82;89.41;100629.69;5057216;28;20125;-78
2021/06/04 01:01:16;;;;;;;15.93;10.55;;;;;;;18.81;89.52;100633.38;5056836;28;20056;-78
2021/06/04 01:03:52;;;;;;;11.52;10.32;;;;;;;18.78;89.49;100620.97;5056757;28;20049;-78
2021/06/04 01:06:39;;;;;;;13.15;9.98;;;;;;;18.72;89.65;100635.91;5055930;28;20048;-76
2021/06/04 01:09:30;;;;;;;10.88;9.75;;;;;;;18.73;89.41;100631.34;5055276;28;20094;-78
2021/06/04 01:12:21;;;;;;;13.13;10.75;;;;;;;18.62;89.49;100623.34;5056393;28;20105;-78
2021/06/04 01:15:03;;;;;;;13.75;10.63;;;;;;;18.51;90.00;100627.81;5056523;28;20044;-77
2021/06/04 01:17:51;;;;;;;12.80;10.73;;;;;;;18.42;90.07;100615.97;5056542;28;20053;-77
2021/06/04 01:20:26;;;;;;;13.82;10.63;;;;;;;18.39;90.70;100623.50;5040452;28;20084;-77
2021/06/04 01:23:26;;;;;;;14.05;10.52;;;;;;;18.37;90.12;100620.06;5036632;28;20053;-77
2021/06/04 01:26:00;;;;;;;14.30;11.10;;;;;;;18.36;90.87;100618.38;5036563;28;20107;-77
2021/06/04 01:28:32;;;;;;;14.85;11.05;;;;;;;18.36;90.75;100623.78;5036245;28;21067;-77
2021/06/04 01:31:14;;;;;;;15.18;11.43;;;;;;;18.35;90.72;100616.66;5035635;28;20053;-78
2021/06/04 01:33:48;;;;;;;14.25;10.60;;;;;;;18.27;90.80;100623.59;5036650;28;20056;-77
2021/06/04 01:36:22;;;;;;;12.38;10.25;;;;;;;18.27;90.23;100628.13;5035481;28;20441;-77
2021/06/04 01:38:50;;;;;;;13.15;10.45;;;;;;;18.10;90.86;100616.06;5036085;28;20049;-77
2021/06/04 01:41:20;;;;;;;14.98;11.10;;;;;;;18.16;91.02;100626.34;5036232;28;20481;-77
2021/06/04 01:43:52;;;;;;;12.07;10.87;;;;;;;18.12;91.13;100614.09;5036282;28;20064;-76
2021/06/04 01:46:26;;;;;;;14.07;11.38;;;;;;;18.03;91.43;100627.34;5036349;28;20302;-77
2021/06/04 01:48:55;;;;;;;13.15;10.98;;;;;;;17.98;91.77;100631.44;5036237;28;20065;-77
2021/06/04 01:51:47;;;;;;;13.48;10.95;;;;;;;17.94;92.17;100625.47;5035892;28;20049;-77
2021/06/04 01:54:22;;;;;;;13.27;11.15;;;;;;;17.98;91.78;100626.06;5036027;28;20111;-76
2021/06/04 01:56:56;;;;;;;15.55;11.55;;;;;;;17.95;91.66;100629.00;5035909;28;20320;-77
2021/06/04 01:59:33;;;;;;;13.38;11.27;;;;;;;17.85;91.63;100635.19;5034827;28;20064;-77
2021/06/04 02:02:01;;;;;;;13.93;11.88;;;;;;;17.78;91.64;100621.34;5035711;28;20355;-77
2021/06/04 02:04:41;;;;;;;14.82;11.98;;;;;;;17.77;91.56;100616.91;5035456;28;20103;-76
2021/06/04 02:07:18;;;;;;;13.13;11.40;;;;;;;17.80;91.81;100621.22;5035869;28;20111;-77
2021/06/04 02:09:47;;;;;;;14.27;12.00;;;;;;;17.78;91.56;100621.34;5035677;28;20053;-77
2021/06/04 02:12:14;;;;;;;13.95;12.02;;;;;;;17.70;91.89;100623.81;5035355;28;20061;-77
2021/06/04 02:14:47;;;;;;;13.80;11.75;;;;;;;17.66;91.79;100630.50;5035385;28;20053;-77
2021/06/04 02:17:41;;;;;;;15.15;12.35;;;;;;;17.63;92.36;100631.59;5034630;28;20112;-77
2021/06/04 02:20:23;;;;;;;13.35;12.10;;;;;;;17.61;91.95;100625.44;5049116;28;20053;-77
2021/06/04 02:23:14;;;;;;;14.45;12.93;;;;;;;17.60;91.96;100618.34;5054511;28;20098;-76
2021/06/04 02:25:47;;;;;;;;;;;;;;;17.60;91.89;100612.09;5055662;28;20435;-77
2021/06/04 02:28:23;;;;;;;14.30;11.93;;;;;;;17.64;92.19;100616.25;5055108;28;19921;-78
2021/06/04 02:31:02;;;;;;;15.68;12.98;;;;;;;17.60;92.29;100618.34;5055374;28;20335;-77
2021/06/04 02:33:38;;;;;;;17.83;13.73;;;;;;;17.55;93.05;100622.41;5055503;28;20049;-77
2021/06/04 02:36:11;;;;;;;16.15;14.32;;;;;;;17.60;92.99;100622.91;5054108;28;20080;-77
2021/06/04 02:38:49;;;;;;;16.35;14.63;;;;;;;17.58;92.73;100622.16;5055232;28;20107;-77
2021/06/04 02:41:27;;;;;;;15.15;13.30;;;;;;;17.56;92.78;100625.00;5055417;28;20067;-77
2021/06/04 02:43:59;;;;;;;15.40;13.63;;;;;;;17.62;92.74;100621.78;5055042;28;20414;-77
2021/06/04 02:46:31;;;;;;;15.88;14.18;;;;;;;17.66;92.40;100617.00;5054014;28;20045;-76
2021/06/04 02:48:58;;;;;;;16.30;13.70;;;;;;;17.62;92.59;100624.50;5054102;28;20052;-77
2021/06/04 02:51:33;;;;;;;15.77;12.82;;;;;;;17.54;92.50;100626.09;5055121;28;20053;-77
2021/06/04 02:54:13;;;;;;;17.67;12.88;;;;;;;17.49;92.18;100624.63;5054932;28;20049;-77
2021/06/04 02:56:42;;;;;;;16.27;13.17;;;;;;;17.49;92.13;100632.72;5055281;28;20058;-76
2021/06/04 02:59:19;;;;;;;14.75;13.20;;;;;;;17.40;92.33;100633.50;5054818;28;20053;-78
2021/06/04 03:01:52;;;;;;;15.93;13.02;;;;;;;17.35;92.63;100638.41;5053912;28;20057;-77
2021/06/04 03:04:20;;;;;;;13.68;12.25;;;;;;;17.24;92.66;100629.38;5054751;28;20080;-77
2021/06/04 03:06:52;;;;;;;14.05;12.15;;;;;;;17.36;92.46;100642.81;5055442;28;20067;-77
2021/06/04 03:09:26;;;;;;;16.42;12.35;;;;;;;17.26;92.73;100647.28;5055494;28;20052;-77
2021/06/04 03:11:56;;;;;;;14.02;12.50;;;;;;;17.23;93.15;100648.38;5053939;28;20075;-77
2021/06/04 03:14:24;;;;;;;14.60;13.05;;;;;;;17.21;93.45;100650.34;5055048;28;20057;-77
2021/06/04 03:16:54;;;;;;;15.23;13.00;;;;;;;17.17;93.85;100654.28;5054992;28;20397;-77
2021/06/04 03:19:21;;;;;;;16.58;13.18;;;;;;;17.21;93.59;100656.59;5045673;28;20446;-77
2021/06/04 03:21:51;;;;;;;14.38;12.90;;;;;;;17.15;93.70;100659.78;5033952;28;20052;-76
2021/06/04 03:24:25;;;;;;;14.75;13.05;;;;;;;17.17;93.27;100638.94;5034219;28;20080;-77
2021/06/04 03:26:51;;;;;;;16.00;12.77;;;;;;;17.25;93.02;100662.59;5033896;28;20080;-76
2021/06/04 03:29:19;;;;;;;14.68;12.60;;;;;;;17.07;93.51;100654.16;5034697;28;20061;-77
2021/06/04 03:31:53;;;;;;;16.10;13.25;;;;;;;17.02;93.79;100667.16;5036658;28;20057;-77
2021/06/04 03:38:07;;;;;;;19.65;13.25;;;;;;;17.11;93.25;100661.03;5038572;28;20048;-77
2021/06/04 03:40:35;;;;;;;14.70;12.18;;;;;;;17.02;93.45;100667.16;5038530;28;20119;-78
2021/06/04 03:43:07;;;;;;;17.63;13.73;;;;;;;16.94;94.02;100668.59;5037307;28;20107;-78
2021/06/04 03:45:38;;;;;;;16.40;13.10;;;;;;;16.87;94.03;100659.28;5037251;28;20049;-78
2021/06/04 03:48:07;;;;;;;17.23;13.82;;;;;;;16.97;93.98;100675.59;5037400;28;20061;-78
2021/06/04 03:50:34;;;;;;;17.08;14.68;;;;;;;16.86;94.21;100660.28;5038608;28;20053;-77
2021/06/04 03:53:06;;;;;;;15.23;13.70;;;;;;;16.85;94.49;100672.03;5038401;28;20045;-77
2021/06/04 03:55:33;;;;;;;16.40;13.73;;;;;;;16.84;94.30;100664.94;5037975;28;20054;-78
2021/06/04 03:58:00;;;;;;;14.80;13.13;;;;;;;16.88;93.89;100660.16;5038129;28;20054;-77
2021/06/04 04:00:29;;;;;;;15.45;13.85;;;;;;;16.86;93.94;100657.56;5036901;28;20053;-78
2021/06/04 04:02:56;;;;;;;16.70;13.52;;;;;;;16.82;94.21;100665.03;5038387;28;20065;-77
2021/06/04 04:05:25;;;;;;;17.38;13.68;;;;;;;16.81;93.79;100673.25;5037774;28;20057;-77
2021/06/04 04:07:52;;;;;;;16.45;12.98;;;;;;;16.87;93.69;100674.59;5038262;28;20506;-77
2021/06/04 04:10:23;;;;;;;14.73;13.30;;;;;;;16.77;94.44;100666.41;5037736;28;20107;-77
2021/06/04 04:12:50;;;;;;;15.38;13.70;;;;;;;16.83;94.46;100682.06;5038068;28;20072;-78
2021/06/04 04:15:19;;;;;;;16.92;14.63;;;;;;;16.80;94.28;100664.31;5037589;28;20169;-77
2021/06/04 04:17:48;;;;;;;16.38;12.35;;;;;;;16.87;94.13;100680.84;5037549;28;20053;-77
2021/06/04 04:20:25;;;;;;;21.05;13.73;;;;;;;16.82;94.24;100667.75;5053206;28;20357;-77
2021/06/04 04:22:53;;;;;;;15.90;13.75;;;;;;;16.92;94.43;100678.66;5057452;28;20049;-77
2021/06/04 04:25:23;;;;;;;16.05;14.18;;;;;;;16.95;94.29;100673.00;5057454;28;20060;-77
2021/06/04 04:27:50;;;;;;;15.13;13.63;;;;;;;16.93;94.53;100677.66;5057298;28;20132;-76
2021/06/04 04:30:19;;;;;;;16.80;13.88;;;;;;;17.02;94.27;100673.41;5056035;28;20099;-75
2021/06/04 04:32:45;;;;;;;16.02;13.63;;;;;;;17.06;94.30;100674.88;5055151;28;20103;-77
2021/06/04 04:35:18;;;;;;;19.13;13.98;;;;;;;17.16;93.73;100679.53;5055921;28;20057;-77
2021/06/04 04:37:46;;;;;;;15.85;13.60;;;;;;;17.10;93.77;100672.78;5057091;28;20045;-77
2021/06/04 04:40:16;;;;;;;17.42;14.18;;;;;;;17.13;93.90;100680.63;5057036;28;20102;-77
2021/06/04 04:42:44;;;;;;;16.63;14.02;;;;;;;17.10;94.12;100675.47;5055418;28;20092;-78
2021/06/04 04:45:15;;;;;;;15.43;12.50;;;;;;;17.11;94.28;100674.53;5055596;28;20057;-78
2021/06/04 04:47:42;;;;;;;16.55;13.05;;;;;;;17.09;94.20;100668.38;5057130;28;20048;-78
2021/06/04 04:50:14;;;;;;;15.80;13.23;;;;;;;17.21;94.52;100678.16;5051384;28;20052;-77
2021/06/04 04:52:41;;;;;;;15.70;13.18;;;;;;;17.12;94.41;100662.75;5033442;28;20053;-77
2021/06/04 04:55:08;;;;;;;14.77;13.20;;;;;;;17.29;94.35;100679.38;5024419;28;20438;-77
2021/06/04 04:57:35;;;;;;;15.45;13.52;;;;;;;17.28;94.04;100667.75;5023090;28;20049;-77
2021/06/04 05:00:07;;;;;;;14.25;12.65;;;;;;;17.36;94.38;100680.59;5025619;28;20046;-78
2021/06/04 05:02:33;;;;;;;15.85;13.38;;;;;;;17.33;95.08;100670.06;5026535;28;20052;-78
2021/06/04 05:05:00;;;;;;;15.55;13.02;;;;;;;17.44;94.99;100680.81;5036635;28;20477;-78
2021/06/04 05:07:26;;;;;;;16.73;13.90;;;;;;;17.51;94.61;100676.66;5051772;28;20049;-78
2021/06/04 05:09:53;;;;;;;18.58;14.93;;;;;;;17.56;94.36;100670.00;5036902;28;20077;-78
2021/06/04 05:12:20;;;;;;;16.48;14.75;;;;;;;17.68;94.25;100682.50;5033187;28;20109;-78
2021/06/04 05:14:47;;;;;;;18.23;14.25;;;;;;;17.61;93.64;100657.84;5036992;28;20135;-79
2021/06/04 05:17:14;;;;;;;18.48;14.48;;;;;;;17.76;93.99;100679.16;5028111;28;20208;-78
2021/06/04 05:19:43;;;;;;;17.48;14.70;;;;;;;17.80;93.87;100679.78;5027650;28;20057;-78
2021/06/04 05:22:10;;;;;;;26.02;17.80;;;;;;;17.91;93.05;100685.09;5025357;28;20054;-79
2021/06/04 05:24:38;;;;;;;25.63;20.30;;;;;;;17.95;92.04;100691.09;5046974;28;20079;-78
2021/06/04 05:27:05;;;;;;;25.83;21.00;;;;;;;18.01;91.51;100690.59;5032509;28;20493;-79
2021/06/04 05:29:32;;;;;;;30.08;21.85;;;;;;;17.96;91.24;100674.78;5027975;28;20108;-79
2021/06/04 05:31:59;;;;;;;28.70;22.85;;;;;;;17.99;90.15;100663.75;5017432;28;20127;-79
2021/06/04 05:34:26;;;;;;;33.22;22.83;;;;;;;18.21;88.79;100686.25;5019212;28;20113;-78
2021/06/04 05:36:53;;;;;;;27.77;22.40;;;;;;;18.22;88.65;100682.56;5024680;28;20041;-76
2021/06/04 05:39:23;;;;;;;31.70;22.90;;;;;;;18.27;89.12;100691.13;5025117;28;20057;-83
2021/06/04 05:41:54;;;;;;;29.55;21.55;;;;;;;18.31;88.92;100686.31;5028472;28;20149;-78
2021/06/04 05:44:22;;;;;;;;;;;;;;;18.47;88.29;100677.75;5023065;28;20060;-79
2021/06/04 05:46:51;;;;;;;29.38;21.95;;;;;;;18.49;86.06;100683.88;5026752;28;20674;-76
2021/06/04 05:49:19;;;;;;;31.05;23.33;;;;;;;18.44;86.15;100670.75;5024423;28;20089;-76
2021/06/04 05:51:47;;;;;;;29.67;23.33;;;;;;;18.56;83.89;100679.66;5023424;28;20050;-79
2021/06/04 05:54:15;;;;;;;33.22;23.85;;;;;;;18.50;84.46;100672.06;5024403;28;20058;-78
2021/06/04 05:56:42;;;;;;;31.25;23.35;;;;;;;18.49;84.38;100667.66;5024792;28;20830;-76
2021/06/04 05:59:10;;;;;;;34.55;24.17;;;;;;;18.59;83.29;100675.81;5027435;28;20100;-77
2021/06/04 06:01:36;;;;;;;34.45;23.70;;;;;;;18.63;83.30;100674.56;5022112;28;20096;-77
2021/06/04 06:04:05;;;;;;;30.15;23.13;;;;;;;18.73;82.20;100675.47;5023366;28;20056;-82
2021/06/04 06:06:33;;;;;;;27.92;23.15;;;;;;;18.76;81.50;100677.06;5025762;28;20095;-75
2021/06/04 06:08:59;;;;;;;30.95;23.63;;;;;;;18.84;80.30;100670.94;5026349;28;20103;-78
2021/06/04 06:11:27;;;;;;;34.75;24.48;;;;;;;18.93;80.93;100680.09;5022383;28;20097;-74
2021/06/04 06:13:57;;;;;;;30.75;23.33;;;;;;;18.97;81.14;100679.69;5031362;28;20108;-78
2021/06/04 06:16:29;;;;;;;33.42;23.23;;;;;;;19.06;79.56;100690.75;5031991;28;20064;-74
2021/06/04 06:18:56;;;;;;;31.80;23.50;;;;;;;19.18;79.18;100694.19;5030915;28;20046;-75
2021/06/04 06:21:25;;;;;;;32.83;23.27;;;;;;;19.20;78.49;100698.47;5015780;28;20176;-75
2021/06/04 06:23:51;;;;;;;34.42;23.38;;;;;;;19.30;78.02;100700.34;5013975;28;20104;-75
2021/06/04 06:26:23;;;;;;;33.10;23.38;;;;;;;19.29;78.74;100696.81;5015020;28;20141;-75
2021/06/04 06:28:52;;;;;;;34.75;26.42;;;;;;;19.37;76.93;100707.78;5015497;28;20053;-75
2021/06/04 06:31:23;;;;;;;33.67;24.53;;;;;;;19.40;77.50;100706.66;5015836;28;20050;-75
2021/06/04 06:33:52;;;;;;;35.90;26.15;;;;;;;19.36;77.02;100706.09;5015648;28;20068;-75
2021/06/04 06:36:26;;;;;;;33.60;25.40;;;;;;;19.46;77.83;100713.38;5015738;28;20049;-75
2021/06/04 06:39:25;;;;;;;35.65;26.58;;;;;;;19.66;77.00;100714.25;5015420;28;20053;-75
2021/06/04 06:41:53;;;;;;;37.33;27.30;;;;;;;19.65;76.44;100712.53;5015638;28;20050;-76
2021/06/04 06:44:20;;;;;;;36.83;27.33;;;;;;;19.65;76.53;100716.13;5015588;28;20054;-76
2021/06/04 06:46:51;;;;;;;33.30;26.50;;;;;;;19.71;77.29;100713.84;5030545;28;20447;-75
2021/06/04 06:49:20;;;;;;;36.63;26.63;;;;;;;19.67;76.28;100710.56;5015300;28;20049;-74
2021/06/04 06:51:47;;;;;;;36.05;26.52;;;;;;;19.73;77.06;100714.56;5015602;28;20108;-75
2021/06/04 06:54:18;;;;;;;40.85;27.50;;;;;;;19.87;76.04;100706.03;5015632;28;20092;-75
2021/06/04 06:56:47;;;;;;;37.35;28.05;;;;;;;19.92;75.70;100719.13;5015663;28;20049;-75
2021/06/04 06:59:14;;;;;;;35.58;27.30;;;;;;;19.81;76.61;100712.88;5015499;28;20681;-75
2021/06/04 07:01:42;;;;;;;39.28;27.63;;;;;;;19.92;76.28;100721.84;5015379;28;20046;-75
2021/06/04 07:04:09;;;;;;;36.83;26.85;;;;;;;20.06;75.30;100720.63;5014124;28;20056;-75
2021/06/04 07:06:38;;;;;;;33.70;27.15;;;;;;;19.93;76.30;100716.31;5016927;28;20112;-75
2021/06/04 07:09:11;;;;;;;40.65;27.85;;;;;;;19.95;76.31;100729.75;5019274;28;20057;-74
2021/06/04 07:11:41;;;;;;;39.77;27.57;;;;;;;19.93;76.03;100727.13;5019363;28;20069;-75
2021/06/04 07:14:10;;;;;;;40.55;29.55;;;;;;;19.92;75.75;100730.84;5019013;28;20696;-75
2021/06/04 07:16:38;;;;;;;37.35;27.27;;;;;;;19.95;75.71;100725.16;5018948;28;20046;-75
2021/06/04 07:19:05;;;;;;;39.10;27.48;;;;;;;20.08;76.29;100718.63;5023650;28;20053;-75
2021/06/04 07:21:34;;;;;;;42.83;28.52;;;;;;;20.25;74.56;100729.75;5038692;28;20172;-75
2021/06/04 07:24:01;;;;;;;40.70;29.65;;;;;;;20.35;74.46;100726.03;5038908;28;20057;-75
2021/06/04 07:26:28;;;;;;;38.05;27.50;;;;;;;20.32;74.42;100725.47;5038555;28;20508;-75
2021/06/04 07:29:00;;;;;;;38.92;29.70;;;;;;;20.24;74.46;100723.47;5038506;28;20057;-75
2021/06/04 07:31:28;;;;;;;37.28;28.85;;;;;;;20.27;74.47;100719.63;5038840;28;20053;-75
2021/06/04 07:33:56;;;;;;;45.92;31.25;;;;;;;20.43;75.01;100722.59;5037298;28;20446;-75
2021/06/04 07:36:28;;;;;;;41.22;32.67;;;;;;;20.54;75.57;100716.13;5038718;28;20053;-75
2021/06/04 07:38:56;;;;;;;46.08;35.30;;;;;;;20.63;76.22;100720.72;5038625;28;20057;-75
2021/06/04 07:41:24;;;;;;;46.17;35.45;;;;;;;20.77;76.01;100713.94;5038389;28;20127;-75
2021/06/04 07:43:51;;;;;;;48.90;34.42;;;;;;;20.70;76.71;100707.41;5037084;28;20049;-75
2021/06/04 07:46:20;;;;;;;49.60;36.72;;;;;;;20.78;76.70;100714.81;5037062;28;20401;-75
2021/06/04 07:48:47;;;;;;;45.80;36.80;;;;;;;20.76;75.96;100723.09;5037221;28;20382;-75
2021/06/04 07:51:21;;;;;;;50.50;37.22;;;;;;;20.75;76.86;100726.81;5038066;28;20135;-76
2021/06/04 07:53:48;;;;;;;47.30;36.42;;;;;;;20.67;77.69;100709.56;5038494;28;20089;-76
2021/06/04 07:56:17;;;;;;;49.00;38.35;;;;;;;20.71;78.54;100722.66;5038315;28;20054;-76
2021/06/04 07:58:45;;;;;;;46.38;37.10;;;;;;;20.82;78.18;100727.09;5038222;28;20332;-76
2021/06/04 08:01:12;;;;;;;51.67;38.30;;;;;;;20.87;78.44;100729.41;5038081;28;20057;-76
2021/06/04 08:03:41;;;;;;;51.10;37.72;;;;;;;20.94;78.58;100716.94;5038223;28;20050;-76
2021/06/04 08:06:09;;;;;;;45.13;36.88;;;;;;;21.03;77.31;100715.22;5037921;28;20435;-76
2021/06/04 08:08:36;;;;;;;47.75;36.15;;;;;;;21.17;77.10;100714.72;5037716;28;20052;-76
2021/06/04 08:11:07;;;;;;;43.17;36.25;;;;;;;21.24;77.21;100716.84;5038107;28;20056;-76
2021/06/04 08:13:34;;;;;;;51.03;37.58;;;;;;;21.28;77.10;100710.94;5037401;28;20065;-76
2021/06/04 08:16:07;;;;;;;50.95;37.55;;;;;;;21.34;77.09;100708.63;5037652;28;20100;-76
2021/06/04 08:18:36;;;;;;;47.25;36.92;;;;;;;21.34;76.92;100708.63;5034716;28;20057;-76
2021/06/04 08:21:11;;;;;;;45.30;35.65;;;;;;;21.36;76.57;100702.03;5017885;28;20050;-76
2021/06/04 08:23:40;;;;;;;52.53;38.92;;;;;;;21.41;75.98;100704.31;5017982;28;20329;-76
2021/06/04 08:26:10;;;;;;;47.85;38.03;;;;;;;21.47;76.03;100706.41;5017699;28;20061;-76
2021/06/04 08:28:38;;;;;;;49.17;38.10;;;;;;;21.56;76.16;100708.22;5017602;28;20049;-76
2021/06/04 08:31:06;;;;;;;49.80;38.45;;;;;;;21.76;75.96;100709.97;5017590;28;20058;-76
2021/06/04 08:33:41;;;;;;;45.85;35.60;;;;;;;21.89;74.90;100710.44;5017508;28;20053;-76
2021/06/04 08:36:16;;;;;;;48.65;36.05;;;;;;;21.95;74.47;100715.25;5017971;28;20447;-76
2021/06/04 08:38:43;;;;;;;46.00;35.63;;;;;;;22.17;73.13;100706.81;5016833;28;20045;-76
2021/06/04 08:41:43;;;;;;;45.80;35.22;;;;;;;22.24;72.34;100706.00;5016675;28;20053;-76
2021/06/04 08:44:39;;;;;;;41.33;32.72;;;;;;;22.38;71.33;100711.88;5017551;28;20057;-76
2021/06/04 08:47:34;;;;;;;40.13;31.33;;;;;;;22.45;72.63;100706.69;5017191;28;20045;-76
2021/06/04 08:50:22;;;;;;;42.50;33.33;;;;;;;22.54;71.11;100711.19;5016075;28;20053;-76
2021/06/04 08:52:55;;;;;;;45.33;35.55;;;;;;;22.53;72.10;100709.47;5017543;28;20112;-76
2021/06/04 08:55:34;;;;;;;;;;;;;;;22.60;72.73;100710.56;5017567;28;20497;-76
2021/06/04 08:58:20;;;;;;;47.75;33.35;;;;;;;22.67;70.65;100709.91;5017106;28;19921;-76
2021/06/04 09:00:59;;;;;;;42.08;33.22;;;;;;;22.80;70.92;100704.91;5017023;28;20111;-76
2021/06/04 09:03:37;;;;;;;49.13;34.80;;;;;;;22.74;72.02;100702.81;5017065;28;20100;-76
2021/06/04 09:06:23;;;;;;;40.95;32.42;;;;;;;22.66;71.30;100703.59;5017236;28;20050;-76
2021/06/04 09:08:51;;;;;;;37.83;31.17;;;;;;;22.68;72.38;100689.84;5032247;28;20046;-76
2021/06/04 09:11:21;;;;;;;40.47;32.45;;;;;;;22.75;71.21;100697.22;5017020;28;20122;-76
2021/06/04 09:13:48;;;;;;;43.63;34.05;;;;;;;22.90;70.68;100694.75;5016388;28;20108;-76
2021/06/04 09:16:43;;;;;;;41.72;32.35;;;;;;;23.04;70.46;100693.28;5015895;28;20057;-76
2021/06/04 09:19:16;;;;;;;44.00;32.47;;;;;;;23.14;69.75;100701.34;5023195;28;20349;-75
2021/06/04 09:21:44;;;;;;;45.40;34.58;;;;;;;23.29;67.08;100700.72;5036721;28;20116;-75
2021/06/04 09:24:29;;;;;;;45.00;31.90;;;;;;;23.31;68.37;100696.84;5035319;28;20057;-77
2021/06/04 09:26:57;;;;;;;44.58;31.88;;;;;;;23.33;70.28;100688.50;5035235;28;20053;-76
2021/06/04 09:29:26;;;;;;;41.08;31.77;;;;;;;23.48;68.35;100693.31;5035793;28;20053;-75
2021/06/04 09:31:57;;;;;;;46.50;33.13;;;;;;;23.54;67.08;100692.66;5036486;28;20049;-75
2021/06/04 09:34:30;;;;;;;45.45;33.35;;;;;;;23.61;67.96;100690.97;5036311;28;20451;-75
2021/06/04 09:37:14;;;;;;;45.17;31.02;;;;;;;23.73;66.98;100697.81;5035574;28;20053;-75
2021/06/04 09:39:52;;;;;;;42.80;34.72;;;;;;;23.81;65.16;100693.41;5036171;28;20107;-75
2021/06/04 09:42:29;;;;;;;42.33;33.22;;;;;;;23.83;64.31;100688.63;5036272;28;20050;-75
2021/06/04 09:44:58;;;;;;;36.20;29.38;;;;;;;24.00;66.29;100700.38;5036798;28;20055;-75
2021/06/04 09:47:47;;;;;;;49.17;36.45;;;;;;;23.94;64.26;100684.72;5036241;28;20397;-75
2021/06/04 09:50:20;;;;;;;45.95;33.60;;;;;;;23.94;65.30;100696.47;5036250;28;20098;-75
2021/06/04 09:53:05;;;;;;;47.70;33.88;;;;;;;24.09;64.35;100687.66;5035011;28;20488;-75
2021/06/04 09:55:34;;;;;;;41.58;30.80;;;;;;;24.16;66.01;100693.25;5035554;28;20057;-76
2021/06/04 09:58:21;;;;;;;44.50;35.45;;;;;;;24.11;62.90;100696.50;5034973;28;20076;-75
2021/06/04 10:00:54;;;;;;;37.88;30.23;;;;;;;23.89;66.45;100698.84;5035566;28;20103;-75
2021/06/04 10:03:24;;;;;;;39.67;32.83;;;;;;;23.54;65.60;100687.22;5035741;28;20068;-75
2021/06/04 10:06:12;;;;;;;38.47;32.47;;;;;;;23.41;66.82;100684.94;5035969;28;20046;-75
2021/06/04 10:08:42;;;;;;;45.20;34.13;;;;;;;23.29;68.41;100687.09;5041632;28;20061;-75
2021/06/04 10:11:15;;;;;;;47.40;35.60;;;;;;;23.11;67.30;100685.34;5034649;28;20049;-75
2021/06/04 10:13:47;;;;;;;44.50;35.28;;;;;;;23.03;68.34;100683.41;5035584;28;20057;-75
2021/06/04 10:19:24;;;;;;;43.65;34.80;;;;;;;23.01;67.93;100669.13;5029116;28;20429;-75
2021/06/04 10:22:08;;;;;;;41.28;35.53;;;;;;;23.01;67.75;100668.25;5015597;28;20490;-75
2021/06/04 10:24:38;;;;;;;45.17;35.20;;;;;;;23.03;67.93;100671.66;5016113;28;20155;-75
2021/06/04 10:27:16;;;;;;;43.20;33.08;;;;;;;23.06;69.04;100674.06;5015938;28;20053;-75
2021/06/04 10:29:57;;;;;;;46.35;34.17;;;;;;;23.03;67.74;100668.94;5015876;28;20053;-75
2021/06/04 10:32:25;;;;;;;;;;;;;;;23.07;68.24;100662.16;5016311;28;20050;-75
2021/06/04 10:35:03;;;;;;;46.95;33.88;;;;;;;23.09;69.40;100657.41;5014614;28;19975;-75
2021/06/04 10:37:38;;;;;;;45.90;35.00;;;;;;;23.29;68.96;100671.63;5015701;28;20045;-75
2021/06/04 10:40:23;;;;;;;47.47;37.05;;;;;;;23.42;68.73;100656.72;5015495;28;20070;-75
2021/06/04 10:42:55;;;;;;;43.53;34.63;;;;;;;23.52;67.96;100662.00;5015076;28;20386;-75
2021/06/04 10:45:31;;;;;;;44.30;35.08;;;;;;;23.59;66.87;100641.25;5014598;28;20360;-75
2021/06/04 10:48:22;;;;;;;43.53;33.80;;;;;;;23.84;67.83;100657.63;5015466;28;20042;-75
2021/06/04 10:50:55;;;;;;;43.20;33.15;;;;;;;23.97;67.56;100640.78;5015285;28;20053;-75
2021/06/04 10:53:33;;;;;;;46.22;37.08;;;;;;;24.16;65.56;100653.22;5015408;28;20053;-75
2021/06/04 10:56:19;;;;;;;43.85;33.20;;;;;;;24.46;66.54;100645.34;5015334;28;20049;-75
2021/06/04 10:58:51;;;;;;;40.75;31.45;;;;;;;24.71;65.41;100636.25;5015379;28;20046;-75
2021/06/04 11:01:28;;;;;;;39.30;32.20;;;;;;;24.81;63.31;100643.25;5015630;28;20049;-76
2021/06/04 11:04:00;;;;;;;43.95;31.65;;;;;;;24.80;62.97;100621.56;5015535;28;20142;-75
2021/06/04 11:06:55;;;;;;;42.53;33.67;;;;;;;25.04;62.84;100647.94;5015107;28;20453;-75
2021/06/04 11:09:23;;;;;;;40.05;31.35;;;;;;;25.25;64.39;100641.00;5015290;28;20497;-76
2021/06/04 11:11:52;;;;;;;43.20;32.35;;;;;;;25.42;62.87;100643.63;5015202;28;20057;-75
2021/06/04 11:15:03;;;;;;;37.73;31.10;;;;;;;25.63;60.00;100637.53;5015100;28;20061;-75
2021/06/04 11:17:35;;;;;;;;;;;;;;;25.49;60.50;100640.00;5033221;28;20332;-75
2021/06/04 11:20:17;;;;;;;36.72;30.15;;;;;;;25.69;61.34;100633.22;5063071;28;19921;-75
2021/06/04 11:23:02;;;;;;;36.88;29.80;;;;;;;26.03;59.33;100629.19;5033640;28;20050;-76
2021/06/04 11:25:41;;;;;;;35.33;28.30;;;;;;;26.30;58.98;100630.53;5035092;28;20049;-75
2021/06/04 11:28:23;;;;;;;40.58;32.13;;;;;;;26.43;58.22;100607.13;5034032;28;20053;-76
2021/06/04 11:30:53;;;;;;;38.22;28.70;;;;;;;26.57;58.97;100619.13;5035083;28;20049;-76
2021/06/04 11:33:21;;;;;;;;;;;;;;;26.51;57.10;100609.78;5035466;28;20111;-76
2021/06/04 11:36:04;;;;;;;38.95;31.33;;;;;;;26.59;57.37;100608.84;5034820;28;20310;-75
2021/06/04 11:38:38;;;;;;;35.58;29.48;;;;;;;26.71;56.22;100599.09;5034668;28;20050;-76
2021/06/04 11:41:48;;;;;;;36.03;28.00;;;;;;;26.92;56.26;100600.25;5034870;28;20053;-76
2021/06/04 11:44:42;;;;;;;36.75;26.60;;;;;;;26.89;56.47;100605.22;5027232;28;20058;-76